createdAt,value
2023-06-30T00:02:06.689Z,100234.13
2023-06-30T00:04:40.148Z,100230.44
2023-06-30T00:07:13.892Z,100230.48
2023-06-30T00:09:46.504Z,100228.41
2023-06-30T00:12:19.655Z,100195.07
2023-06-30T00:14:52.369Z,100227.88
2023-06-30T00:17:25.937Z,100229.39
2023-06-30T00:20:00.723Z,100229.86
2023-06-30T00:22:33.768Z,100221.67
2023-06-30T00:25:06.997Z,100228.88
2023-06-30T00:27:39.293Z,100226.82
2023-06-30T00:30:13.548Z,100226.33
2023-06-30T00:32:47.512Z,100218.90
2023-06-30T00:35:19.853Z,100218.32
2023-06-30T00:37:53.264Z,100216.00
2023-06-30T00:40:26.080Z,100213.94
2023-06-30T00:43:00.085Z,100209.72
2023-06-30T00:45:32.901Z,100201.47
2023-06-30T00:48:05.697Z,100204.05
2023-06-30T00:50:38.630Z,100203.69
2023-06-30T00:53:11.123Z,100198.36
2023-06-30T00:55:45.870Z,100197.32
2023-06-30T00:58:20.085Z,100200.75
2023-06-30T01:00:58.794Z,100196.73
2023-06-30T01:03:38.349Z,100193.23
2023-06-30T01:06:38.874Z,100186.77
2023-06-30T01:09:15.973Z,100175.26
2023-06-30T01:11:55.430Z,100187.08
2023-06-30T02:09:38.666Z,100164.04
2023-06-30T02:12:20.670Z,100162.09
2023-06-30T02:14:53.093Z,100165.86
2023-06-30T02:17:32.762Z,100164.94
2023-06-30T02:20:07.631Z,100167.15
2023-06-30T02:22:40.520Z,100162.24
2023-06-30T02:25:13.129Z,100142.95
2023-06-30T02:27:47.144Z,100148.57
2023-06-30T02:30:24.161Z,100146.06
2023-06-30T02:32:56.839Z,100141.59
2023-06-30T02:35:29.468Z,100146.15
2023-06-30T02:38:01.680Z,100148.94
2023-06-30T02:40:34.327Z,100149.33
2023-06-30T02:43:06.861Z,100142.64
2023-06-30T02:45:39.343Z,100141.78
2023-06-30T02:48:11.585Z,100142.85
2023-06-30T02:50:45.784Z,100139.52
2023-06-30T02:53:19.916Z,100144.47
2023-06-30T02:55:52.447Z,100139.95
2023-06-30T02:58:24.897Z,100136.95
2023-06-30T03:00:57.810Z,100136.73
2023-06-30T03:03:30.505Z,100136.98
2023-06-30T03:06:02.984Z,100138.38
2023-06-30T03:08:37.262Z,100135.20
2023-06-30T03:11:09.975Z,100137.39
2023-06-30T03:13:42.807Z,100137.84
2023-06-30T03:16:15.562Z,100129.84
2023-06-30T03:18:47.925Z,100127.85
2023-06-30T03:21:20.865Z,100127.52
2023-06-30T03:23:53.162Z,100132.88
2023-06-30T03:26:25.536Z,100135.87
2023-06-30T03:28:57.917Z,100133.19
2023-06-30T03:31:30.217Z,100133.27
2023-06-30T03:34:02.828Z,100129.88
2023-06-30T03:36:35.113Z,100128.55
2023-06-30T03:39:07.558Z,100128.11
2023-06-30T03:41:40.397Z,100125.91
2023-06-30T03:44:15.310Z,100125.33
2023-06-30T03:46:48.125Z,100123.52
2023-06-30T03:49:20.787Z,100125.19
2023-06-30T03:51:53.230Z,100128.77
2023-06-30T03:54:25.816Z,100125.98
2023-06-30T03:56:58.580Z,100119.40
2023-06-30T03:59:31.009Z,100126.79
2023-06-30T04:02:03.349Z,100122.93
2023-06-30T04:04:36.109Z,100126.55
2023-06-30T04:07:09.368Z,100123.39
2023-06-30T04:09:41.820Z,100122.39
2023-06-30T04:12:14.516Z,100122.85
2023-06-30T04:14:47.587Z,100121.20
2023-06-30T04:17:19.865Z,100118.72
2023-06-30T04:19:52.955Z,100114.02
2023-06-30T04:22:25.607Z,100113.17
2023-06-30T04:24:58.434Z,100114.68
2023-06-30T04:27:30.712Z,100114.92
2023-06-30T04:30:02.976Z,100111.51
2023-06-30T04:32:35.504Z,100106.47
2023-06-30T04:35:09.247Z,100100.26
2023-06-30T04:37:42.456Z,100103.95
2023-06-30T04:40:14.800Z,100106.82
2023-06-30T04:42:47.224Z,100107.84
2023-06-30T04:45:19.793Z,100106.52
2023-06-30T04:47:52.183Z,100108.67
2023-06-30T04:50:26.417Z,100111.51
2023-06-30T04:52:58.725Z,100102.63
2023-06-30T04:55:31.609Z,100116.88
2023-06-30T04:58:04.013Z,100118.91
2023-06-30T05:00:36.725Z,100120.27
2023-06-30T05:03:09.169Z,100120.24
2023-06-30T05:05:41.428Z,100117.98
2023-06-30T05:08:15.534Z,100111.44
2023-06-30T05:10:47.833Z,100110.85
2023-06-30T05:13:20.776Z,100111.03
2023-06-30T05:15:53.701Z,100113.02
2023-06-30T05:18:26.517Z,100114.00
2023-06-30T05:20:58.978Z,100110.88
2023-06-30T05:23:31.403Z,100116.36
2023-06-30T05:26:03.574Z,100113.77
2023-06-30T05:28:38.044Z,100107.09
2023-06-30T05:31:10.512Z,100106.76
2023-06-30T05:33:42.538Z,100105.31
2023-06-30T05:36:14.794Z,100105.30
2023-06-30T05:38:48.015Z,100106.65
2023-06-30T05:41:20.370Z,100102.30
2023-06-30T05:43:52.698Z,100086.79
2023-06-30T05:46:25.511Z,100103.69
2023-06-30T05:48:57.500Z,100097.48
2023-06-30T05:51:29.807Z,100107.73
2023-06-30T05:54:02.259Z,100108.58
2023-06-30T05:56:34.958Z,100108.05
2023-06-30T05:59:10.741Z,100118.27
2023-06-30T06:01:43.405Z,100119.37
2023-06-30T06:04:15.766Z,100123.64
2023-06-30T06:06:48.391Z,100123.48
2023-06-30T06:09:20.687Z,100124.25
2023-06-30T06:11:53.041Z,100114.06
2023-06-30T06:14:25.427Z,100121.13
2023-06-30T06:16:58.026Z,100110.14
2023-06-30T06:19:30.399Z,100117.63
2023-06-30T06:22:02.875Z,100118.91
2023-06-30T06:24:35.188Z,100118.69
2023-06-30T06:27:08.390Z,100116.14
2023-06-30T06:29:40.968Z,100114.41
2023-06-30T06:32:13.395Z,100106.50
2023-06-30T06:34:45.732Z,100113.91
2023-06-30T06:37:19.041Z,100111.50
2023-06-30T06:39:51.544Z,100101.78
2023-06-30T06:42:23.935Z,100110.53
2023-06-30T06:44:56.200Z,100108.75
2023-06-30T06:48:03.245Z,100109.89
2023-06-30T06:50:35.665Z,100107.95
2023-06-30T06:53:08.165Z,100109.38
2023-06-30T06:55:41.023Z,100104.22
2023-06-30T06:58:13.070Z,100106.71
2023-06-30T07:00:46.720Z,100107.38
2023-06-30T07:03:20.430Z,100101.67
2023-06-30T07:05:52.925Z,100105.44
2023-06-30T07:08:25.544Z,100106.30
2023-06-30T07:10:58.371Z,100099.55
2023-06-30T07:13:30.724Z,100100.65
2023-06-30T07:16:03.392Z,100098.59
2023-06-30T07:18:36.198Z,100101.42
2023-06-30T07:21:08.661Z,100098.08
2023-06-30T07:23:40.854Z,100093.02
2023-06-30T07:26:13.244Z,100092.34
2023-06-30T07:28:48.351Z,100088.15
2023-06-30T07:31:20.867Z,100082.57
2023-06-30T07:33:53.156Z,100082.27
2023-06-30T07:36:25.350Z,100081.56
2023-06-30T07:38:58.031Z,100072.79
2023-06-30T07:41:36.789Z,100085.06
2023-06-30T07:44:10.381Z,100081.21
2023-06-30T07:46:42.848Z,100081.92
2023-06-30T07:49:15.437Z,100075.23
2023-06-30T07:51:48.267Z,100076.59
2023-06-30T07:54:20.896Z,100076.94
2023-06-30T07:56:53.015Z,100072.05
2023-06-30T07:59:25.353Z,100071.30
2023-06-30T08:01:57.508Z,100070.05
2023-06-30T08:04:29.830Z,100073.10
2023-06-30T08:07:02.394Z,100075.41
2023-06-30T08:09:34.626Z,100076.42
2023-06-30T08:12:07.878Z,100077.14
2023-06-30T08:14:40.110Z,100082.44
2023-06-30T08:17:12.412Z,100082.61
2023-06-30T08:19:55.062Z,100082.02
2023-06-30T08:22:27.407Z,100084.62
2023-06-30T08:25:01.032Z,100084.14
2023-06-30T08:27:33.392Z,100084.94
2023-06-30T08:30:08.690Z,100088.48
2023-06-30T08:32:41.083Z,100087.19
2023-06-30T08:35:13.814Z,100089.59
2023-06-30T08:37:48.032Z,100089.04
2023-06-30T08:40:27.824Z,100089.66
2023-06-30T08:43:05.308Z,100095.62
2023-06-30T08:45:37.869Z,100091.19
2023-06-30T08:48:10.948Z,100090.23
2023-06-30T08:50:44.335Z,100094.80
2023-06-30T08:53:19.464Z,100090.16
2023-06-30T08:55:52.442Z,100090.17
2023-06-30T08:58:26.513Z,100086.43
2023-06-30T09:00:59.618Z,100088.88
2023-06-30T09:03:32.932Z,100087.67
2023-06-30T09:06:05.913Z,100081.02
2023-06-30T09:08:47.780Z,100090.00
2023-06-30T09:11:21.611Z,100082.27
2023-06-30T09:13:55.892Z,100092.01
2023-06-30T09:16:28.066Z,100093.25
2023-06-30T09:19:00.884Z,100093.72
2023-06-30T09:21:33.638Z,100099.94
2023-06-30T09:24:06.047Z,100100.62
2023-06-30T09:26:38.587Z,100096.71
2023-06-30T09:29:16.140Z,100092.83
2023-06-30T09:31:51.761Z,100097.77
2023-06-30T09:34:24.900Z,100096.06
2023-06-30T09:36:57.861Z,100092.69
2023-06-30T09:39:30.264Z,100090.32
2023-06-30T09:42:02.640Z,100087.27
2023-06-30T09:44:41.596Z,100088.88
2023-06-30T09:47:14.508Z,100088.77
2023-06-30T09:49:47.453Z,100085.36
2023-06-30T09:52:27.660Z,100087.96
2023-06-30T09:54:59.962Z,100085.70
2023-06-30T09:57:32.783Z,100089.80
2023-06-30T10:00:06.003Z,100085.77
2023-06-30T10:02:38.791Z,100083.55
2023-06-30T10:05:11.680Z,100084.86
2023-06-30T10:07:44.122Z,100083.98
2023-06-30T10:10:16.710Z,100086.86
2023-06-30T10:12:51.161Z,100086.23
2023-06-30T10:15:23.659Z,100080.94
2023-06-30T10:17:59.542Z,100070.38
2023-06-30T10:20:46.480Z,100076.86
2023-06-30T10:23:25.069Z,100075.19
2023-06-30T10:25:58.814Z,100063.70
2023-06-30T10:28:31.161Z,100079.98
2023-06-30T10:31:03.673Z,100082.71
2023-06-30T10:33:35.939Z,100088.41
2023-06-30T10:36:10.130Z,100094.01
2023-06-30T10:38:44.698Z,100095.27
2023-06-30T10:41:20.667Z,100096.41
2023-06-30T10:44:13.065Z,100095.84
2023-06-30T10:46:48.423Z,100102.36
2023-06-30T10:49:23.859Z,100103.38
2023-06-30T10:51:58.911Z,100105.48
2023-06-30T10:54:32.569Z,100105.52
2023-06-30T10:57:12.907Z,100106.10
2023-06-30T10:59:47.315Z,100102.98
2023-06-30T11:02:25.800Z,100104.78
2023-06-30T11:05:19.822Z,100105.07
2023-06-30T11:07:53.989Z,100103.21
2023-06-30T11:10:37.945Z,100104.05
2023-06-30T11:13:11.647Z,100107.88
2023-06-30T11:15:53.451Z,100100.65
2023-06-30T11:18:27.282Z,100096.33
2023-06-30T11:21:03.523Z,100092.24
2023-06-30T11:23:38.769Z,100087.02
2023-06-30T11:26:17.551Z,100077.87
2023-06-30T11:28:51.187Z,100081.69
2023-06-30T11:31:23.665Z,100084.03
2023-06-30T11:33:57.098Z,100071.89
2023-06-30T11:36:33.985Z,100078.79
2023-06-30T11:39:06.387Z,100080.02
2023-06-30T11:41:38.789Z,100076.98
2023-06-30T11:44:13.237Z,100075.42
2023-06-30T11:46:45.603Z,100073.27
2023-06-30T11:49:18.010Z,100064.90
2023-06-30T11:51:50.869Z,100061.27
2023-06-30T11:54:32.731Z,100058.07
2023-06-30T11:57:06.102Z,100049.98
2023-06-30T11:59:38.560Z,100047.39
2023-06-30T12:02:14.819Z,100048.59
2023-06-30T12:04:51.704Z,100044.29
2023-06-30T12:07:25.003Z,100019.54
2023-06-30T12:10:07.064Z,100036.34
2023-06-30T12:12:39.948Z,100041.06
2023-06-30T12:15:15.014Z,100038.83
2023-06-30T12:17:47.951Z,100039.81
2023-06-30T12:20:32.094Z,100035.41
2023-06-30T12:23:05.695Z,100033.14
2023-06-30T12:25:39.355Z,100035.63
2023-06-30T12:28:13.704Z,100034.48
2023-06-30T12:30:47.638Z,100030.72
2023-06-30T12:33:24.477Z,100027.44
2023-06-30T12:35:56.872Z,100025.91
2023-06-30T12:38:29.256Z,100029.06
2023-06-30T12:41:01.802Z,100025.36
2023-06-30T12:43:35.055Z,100015.48
2023-06-30T12:46:07.832Z,100016.67
2023-06-30T12:48:40.234Z,100022.42
2023-06-30T12:51:12.804Z,100018.86
2023-06-30T12:53:45.365Z,100023.71
2023-06-30T12:56:18.137Z,100023.68
2023-06-30T12:58:50.976Z,100024.39
2023-06-30T13:01:23.466Z,100024.51
2023-06-30T13:03:55.729Z,100017.20
2023-06-30T13:06:27.992Z,100016.45
2023-06-30T13:09:00.218Z,100004.59
2023-06-30T13:11:32.741Z,100017.14
2023-06-30T13:14:05.094Z,100013.30
2023-06-30T13:16:37.832Z,100007.34
2023-06-30T13:19:10.194Z,100002.91
2023-06-30T13:21:42.539Z,99999.27
2023-06-30T13:24:14.899Z,99987.71
2023-06-30T13:26:48.304Z,99982.16
2023-06-30T13:29:20.694Z,99983.52
2023-06-30T13:31:54.262Z,99980.05
2023-06-30T13:34:26.494Z,99976.68
2023-06-30T13:36:58.523Z,99974.06
2023-06-30T13:39:30.844Z,99974.27
2023-06-30T13:42:04.076Z,99968.42
2023-06-30T13:44:37.479Z,99959.73
2023-06-30T13:47:10.162Z,99964.23
2023-06-30T13:49:42.624Z,99951.40
2023-06-30T13:52:15.109Z,99948.05
2023-06-30T13:54:47.321Z,99944.57
2023-06-30T13:57:19.847Z,99938.66
2023-06-30T13:59:52.870Z,99930.23
2023-06-30T14:02:25.631Z,99936.52
2023-06-30T14:04:59.430Z,99933.48
2023-06-30T14:07:31.888Z,99934.42
2023-06-30T14:10:05.604Z,99938.98
2023-06-30T14:12:38.841Z,99940.06
2023-06-30T14:15:12.908Z,99934.71
2023-06-30T14:17:45.363Z,99928.92
2023-06-30T14:20:17.781Z,99926.46
2023-06-30T14:22:50.065Z,99919.83
2023-06-30T14:25:24.253Z,99918.06
2023-06-30T14:27:57.036Z,99917.16
2023-06-30T14:30:33.560Z,99917.29
2023-06-30T14:33:06.070Z,99910.66
2023-06-30T14:35:38.880Z,99909.59
2023-06-30T14:38:11.233Z,99909.71
2023-06-30T14:40:43.501Z,99907.48
2023-06-30T14:43:15.587Z,99903.14
2023-06-30T14:45:47.996Z,99905.77
2023-06-30T14:48:20.661Z,99903.27
2023-06-30T14:50:53.218Z,99902.52
2023-06-30T14:53:25.693Z,99908.55
2023-06-30T14:55:58.894Z,99908.85
2023-06-30T14:58:33.658Z,99917.35
2023-06-30T15:01:06.136Z,99911.59
2023-06-30T15:03:38.298Z,99914.13
2023-06-30T15:06:10.795Z,99915.37
2023-06-30T15:08:43.116Z,99915.42
2023-06-30T15:11:15.194Z,99915.94
2023-06-30T15:13:47.429Z,99916.77
2023-06-30T15:16:19.977Z,99914.83
2023-06-30T15:18:52.232Z,99920.77
2023-06-30T15:21:24.798Z,99925.84
2023-06-30T15:23:57.757Z,99927.95
2023-06-30T15:26:29.978Z,99930.39
2023-06-30T15:29:02.327Z,99924.23
2023-06-30T15:31:34.749Z,99937.73
2023-06-30T15:34:07.063Z,99936.88
2023-06-30T15:36:39.374Z,99943.80
2023-06-30T15:39:11.784Z,99939.20
2023-06-30T15:41:44.366Z,99941.52
2023-06-30T15:44:17.405Z,99943.47
2023-06-30T15:46:49.722Z,99945.58
2023-06-30T15:49:22.215Z,99946.36
2023-06-30T15:51:54.588Z,99947.82
2023-06-30T15:54:27.117Z,99946.08
2023-06-30T15:56:59.435Z,99952.42
2023-06-30T15:59:32.043Z,99935.51
2023-06-30T16:02:04.811Z,99953.70
2023-06-30T16:04:37.085Z,99952.63
2023-06-30T16:07:10.056Z,99952.77
2023-06-30T16:09:42.121Z,99948.74
2023-06-30T16:12:14.786Z,99953.60
2023-06-30T16:14:46.941Z,99954.11
2023-06-30T16:17:19.581Z,99940.11
2023-06-30T16:19:52.396Z,99957.64
2023-06-30T16:22:24.995Z,99967.48
2023-06-30T16:24:57.517Z,99980.58
2023-06-30T16:27:30.401Z,99987.64
2023-06-30T16:30:23.193Z,99983.76
2023-06-30T16:32:58.106Z,99987.67
2023-06-30T16:35:30.837Z,99986.66
2023-06-30T16:38:03.335Z,99984.94
2023-06-30T16:40:35.705Z,99977.23
2023-06-30T16:43:08.320Z,99975.27
2023-06-30T16:45:40.586Z,99970.50
2023-06-30T16:48:12.831Z,99966.20
2023-06-30T16:50:45.410Z,99964.66
2023-06-30T16:53:17.543Z,99957.71
2023-06-30T16:55:49.703Z,99953.33
2023-06-30T16:58:22.292Z,99940.92
2023-06-30T17:00:55.021Z,99938.06
2023-06-30T17:03:28.235Z,99941.61
2023-06-30T17:06:00.616Z,99941.86
2023-06-30T17:08:32.998Z,99945.30
2023-06-30T17:11:05.393Z,99939.55
2023-06-30T17:13:37.644Z,99937.98
2023-06-30T17:16:09.832Z,99938.67
2023-06-30T17:18:42.172Z,99940.83
2023-06-30T17:21:14.310Z,99937.79
2023-06-30T17:23:46.721Z,99925.55
2023-06-30T17:26:19.088Z,99941.18
2023-06-30T17:28:51.561Z,99946.06
2023-06-30T17:31:24.263Z,99942.59
2023-06-30T17:33:56.830Z,99935.20
2023-06-30T17:36:28.878Z,99934.81
2023-06-30T17:39:01.130Z,99935.31
2023-06-30T17:41:33.447Z,99928.81
2023-06-30T17:44:06.085Z,99922.77
2023-06-30T17:46:38.552Z,99922.68
2023-06-30T17:49:25.147Z,99922.16
2023-06-30T17:51:58.001Z,99921.54
2023-06-30T17:54:31.318Z,99922.86
2023-06-30T17:57:03.915Z,99926.77
2023-06-30T17:59:36.188Z,99916.95
2023-06-30T18:02:09.244Z,99918.71
2023-06-30T18:04:42.250Z,99939.98
2023-06-30T18:07:14.975Z,99943.48
2023-06-30T18:09:47.690Z,99938.57
2023-06-30T18:12:19.939Z,99936.11
2023-06-30T18:14:52.395Z,99938.14
2023-06-30T18:17:24.650Z,99946.23
2023-06-30T18:19:57.154Z,99943.24
2023-06-30T18:22:29.381Z,99939.98
2023-06-30T18:25:01.902Z,99944.55
2023-06-30T18:27:34.317Z,99941.27
2023-06-30T18:30:08.344Z,99944.73
2023-06-30T18:32:40.754Z,99946.66
2023-06-30T18:35:13.375Z,99956.13
2023-06-30T18:37:45.612Z,99965.97
2023-06-30T18:40:18.098Z,99959.99
2023-06-30T18:42:52.062Z,99966.06
2023-06-30T18:45:24.285Z,99971.38
2023-06-30T18:47:56.634Z,99959.44
2023-06-30T18:50:29.012Z,99967.95
2023-06-30T18:53:01.033Z,99968.58
2023-06-30T18:55:33.499Z,99972.35
2023-06-30T18:58:05.636Z,99975.45
2023-06-30T19:00:38.148Z,99974.38
2023-06-30T19:03:12.953Z,99976.27
2023-06-30T19:05:46.196Z,99974.73
2023-06-30T19:08:18.748Z,99975.74
2023-06-30T19:10:52.413Z,99976.25
2023-06-30T19:13:25.448Z,99979.21
2023-06-30T19:15:57.861Z,99975.28
2023-06-30T19:18:30.202Z,99986.42
2023-06-30T19:21:02.815Z,99992.56
2023-06-30T19:23:37.171Z,99993.95
2023-06-30T19:26:10.519Z,99992.65
2023-06-30T19:28:44.438Z,99990.65
2023-06-30T19:31:16.851Z,99998.75
2023-06-30T19:33:49.616Z,100005.42
2023-06-30T19:36:22.708Z,100010.05
2023-06-30T19:38:55.090Z,100010.60
2023-06-30T19:41:28.068Z,100007.31
2023-06-30T19:44:00.622Z,100006.25
2023-06-30T19:46:34.608Z,100011.70
2023-06-30T19:49:07.510Z,100008.65
2023-06-30T19:51:39.966Z,100003.65
2023-06-30T19:54:12.645Z,100000.19
2023-06-30T19:56:44.968Z,100000.35
2023-06-30T19:59:17.196Z,100003.89
2023-06-30T20:01:49.995Z,100006.31
2023-06-30T20:04:23.232Z,100001.30
2023-06-30T20:06:56.357Z,100003.80
2023-06-30T20:09:28.799Z,100007.49
2023-06-30T20:12:01.313Z,100006.17
2023-06-30T20:14:33.610Z,100006.48
2023-06-30T20:17:08.966Z,99999.95
2023-06-30T20:19:43.716Z,99984.31
2023-06-30T20:22:15.984Z,99991.84
2023-06-30T20:24:48.357Z,99992.72
2023-06-30T20:27:20.759Z,99993.61
2023-06-30T20:29:54.660Z,99993.69
2023-06-30T20:32:27.183Z,99993.11
2023-06-30T20:34:59.833Z,99988.89
2023-06-30T20:37:32.691Z,99973.09
2023-06-30T20:40:05.567Z,99980.58
2023-06-30T20:42:37.864Z,99984.86
2023-06-30T20:45:11.621Z,99981.58
2023-06-30T20:47:44.097Z,99984.69
2023-06-30T20:50:16.631Z,99982.36
2023-06-30T20:52:49.164Z,99979.63
2023-06-30T20:55:21.389Z,99985.95
2023-06-30T20:57:54.589Z,99990.88
2023-06-30T21:00:27.046Z,99989.54
2023-06-30T21:02:59.441Z,99989.40
2023-06-30T21:05:32.015Z,99987.56
2023-06-30T21:08:04.661Z,99974.08
2023-06-30T21:10:37.037Z,99981.61
2023-06-30T21:13:09.369Z,99987.57
2023-06-30T21:15:41.564Z,99990.84
2023-06-30T21:18:13.893Z,99993.00
2023-06-30T21:20:46.458Z,99987.77
2023-06-30T21:23:19.400Z,99987.21
2023-06-30T21:25:51.644Z,99984.02
2023-06-30T21:28:23.961Z,99964.62
2023-06-30T21:30:58.522Z,99974.62
2023-06-30T21:33:31.010Z,99978.20
2023-06-30T21:36:04.781Z,99980.30
2023-06-30T21:38:37.170Z,99979.27
2023-06-30T21:41:09.690Z,99975.80
2023-06-30T21:44:00.707Z,99974.42
2023-06-30T21:46:33.331Z,99970.67
2023-06-30T21:49:07.121Z,99972.88
2023-06-30T21:51:39.326Z,99975.66
2023-06-30T21:54:11.721Z,99975.45
2023-06-30T21:56:44.502Z,99969.59
2023-06-30T21:59:17.045Z,99966.42
2023-06-30T22:01:49.683Z,99965.14
2023-06-30T22:04:21.977Z,99961.98
2023-06-30T22:06:54.620Z,99960.42
2023-06-30T22:09:27.308Z,99961.77
2023-06-30T22:11:59.577Z,99965.73
2023-06-30T22:14:31.940Z,99972.06
2023-06-30T22:17:04.214Z,99969.02
2023-06-30T22:19:38.332Z,99973.34
2023-06-30T22:22:10.931Z,99970.59
2023-06-30T22:24:43.463Z,99972.80
2023-06-30T22:27:15.773Z,99974.80
2023-06-30T22:29:48.008Z,99976.00
2023-06-30T22:32:20.191Z,99979.21
2023-06-30T22:34:52.610Z,99976.00
2023-06-30T22:37:25.033Z,99971.98
2023-06-30T22:39:57.465Z,99977.11
2023-06-30T22:42:29.743Z,99976.95
2023-06-30T22:45:04.785Z,99973.31
2023-06-30T22:47:37.456Z,99971.98
2023-06-30T22:50:11.312Z,99971.52
2023-06-30T22:52:43.636Z,99971.93
2023-06-30T22:55:15.987Z,99976.05
2023-06-30T22:57:48.345Z,99976.27
2023-06-30T23:00:21.747Z,99975.19
2023-06-30T23:02:54.573Z,99981.80
2023-06-30T23:05:27.167Z,99977.25
2023-06-30T23:07:59.478Z,99980.65
2023-06-30T23:10:32.139Z,99974.57
2023-06-30T23:13:04.441Z,99981.48
2023-06-30T23:15:36.838Z,99981.00
2023-06-30T23:18:09.710Z,99978.75
2023-06-30T23:20:42.805Z,99970.38
2023-06-30T23:23:15.133Z,99973.50
2023-06-30T23:25:47.419Z,99980.58
2023-06-30T23:28:21.990Z,99976.70
2023-06-30T23:30:56.648Z,99974.36
2023-06-30T23:33:29.114Z,99961.48
2023-06-30T23:36:01.538Z,99981.00
2023-06-30T23:38:33.929Z,99979.69
2023-06-30T23:41:06.594Z,99977.34
2023-06-30T23:43:39.197Z,99981.67
2023-06-30T23:46:20.129Z,99980.33
2023-06-30T23:48:53.906Z,99978.70
2023-06-30T23:51:26.221Z,99975.83
2023-06-30T23:53:58.835Z,99979.55
2023-06-30T23:56:31.165Z,99964.59
2023-06-30T23:59:03.303Z,99983.77
